Whitsett, Texas
Current Conditions -  °F | °C
As of 4:55 AM on Friday 19 Dec 2014 (Local Time) from KPEZ Reporting Station
Moderate Rain Moderate Rain  
Wind Chill: 53°   Ceiling: 800
Heat Index: 53°   Visibility: 7mi
Dew Point: 52°   Wind: 8mph
Humidity: 97%   Direction: 20°NNE
Pressure: 30.01"   Gusts: NA
Location:  28.63°N, 98.27°W
Report Text: KPEZ 191055Z AUTO 02007KT 7SM RA OVC008 12/11 A3001 RMK AO2 LTG DSNT NE P0008 T01150110
Loading
Personal Weather Stations






























Interactive Weather Map New forecast layout! Learn more

10-Day Weather Forecast

Advertisements
Track Severe Weather on mobile